Time;durP1;ratioP1;P1;durP2;ratioP2;P2;SDS_P1;SDS_P2;PMS_P1;PMS_P2;Temp;Humidity;BMP_temperature;BMP_pressure;BME280_temperature;BME280_humidity;BME280_pressure;Samples;Min_cycle;Max_cycle;Signal;HPM_P1;HPM_P2
2021/06/09 00:01:12;;;;;;;2.97;1.67;;;;;;;;;;10278979;28;20583;-61
2021/06/09 00:06:10;;;;;;;1.53;1.40;;;;;;;;;;10298425;28;20095;-60
2021/06/09 00:11:07;;;;;;;2.90;1.20;;;;;;;;;;10287222;28;20041;-60
2021/06/09 00:16:11;;;;;;;1.87;1.30;;;;;;;;;;10287081;28;20473;-61
2021/06/09 00:21:09;;;;;;;2.00;1.70;;;;;;;;;;10283188;28;20041;-60
2021/06/09 00:26:06;;;;;;;2.63;1.30;;;;;;;;;;10289247;28;20034;-60
2021/06/09 00:31:05;;;;;;;1.93;1.40;;;;;;;;;;10293568;28;20041;-61
2021/06/09 00:36:02;;;;;;;;;;;;;;;;;;10295018;28;20530;-61
2021/06/09 00:41:00;;;;;;;2.45;0.73;;;;;;;;;;10276084;28;19936;-61
2021/06/09 00:46:02;;;;;;;2.30;1.60;;;;;;;;;;10299487;28;20042;-62
2021/06/09 00:51:04;;;;;;;2.67;2.17;;;;;;;;;;10278918;28;20046;-60
2021/06/09 00:56:08;;;;;;;2.72;1.83;;;;;;;;;;10290101;28;20038;-60
2021/06/09 01:01:06;;;;;;;3.50;1.70;;;;;;;;;;10292666;28;20040;-61
2021/06/09 01:06:04;;;;;;;3.40;2.78;;;;;;;;;;10289570;28;20033;-60
2021/06/09 01:11:03;;;;;;;3.45;1.92;;;;;;;;;;10292619;28;20040;-62
2021/06/09 01:16:00;;;;;;;2.60;1.85;;;;;;;;;;10291641;28;20447;-61
2021/06/09 01:20:58;;;;;;;2.73;2.13;;;;;;;;;;10289370;28;20164;-60
2021/06/09 01:25:56;;;;;;;2.27;1.97;;;;;;;;;;10293630;28;20048;-61
2021/06/09 01:30:54;;;;;;;1.95;1.55;;;;;;;;;;10280913;28;20060;-61
2021/06/09 01:35:52;;;;;;;5.43;2.93;;;;;;;;;;10298180;28;20057;-61
2021/06/09 01:40:49;;;;;;;;;;;;;;;;;;10286064;28;20427;-60
2021/06/09 01:45:47;;;;;;;7.45;4.85;;;;;;;;;;10299585;28;19952;-59
2021/06/09 01:50:44;;;;;;;5.23;4.70;;;;;;;;;;10298738;28;20700;-59
2021/06/09 01:55:42;;;;;;;6.07;4.77;;;;;;;;;;10292924;28;20104;-60
2021/06/09 02:00:45;;;;;;;5.97;4.03;;;;;;;;;;10284766;28;20080;-60
2021/06/09 02:05:43;;;;;;;6.68;4.97;;;;;;;;;;10294837;28;20042;-62
2021/06/09 02:10:41;;;;;;;6.65;4.40;;;;;;;;;;10282565;28;20049;-61
2021/06/09 02:15:39;;;;;;;6.25;4.15;;;;;;;;;;10289488;28;20048;-61
2021/06/09 02:20:42;;;;;;;5.17;4.20;;;;;;;;;;10290451;28;20546;-61
2021/06/09 02:25:41;;;;;;;5.43;4.85;;;;;;;;;;10286556;28;20508;-61
2021/06/09 02:30:41;;;;;;;6.43;3.67;;;;;;;;;;10291385;28;20034;-61
2021/06/09 02:35:40;;;;;;;5.72;3.90;;;;;;;;;;10292457;28;20064;-60
2021/06/09 02:40:38;;;;;;;5.18;3.75;;;;;;;;;;10292700;28;20502;-60
2021/06/09 02:45:36;;;;;;;4.32;3.85;;;;;;;;;;10304660;28;20429;-59
2021/06/09 02:50:34;;;;;;;6.45;4.28;;;;;;;;;;10296875;28;20044;-60
2021/06/09 02:55:32;;;;;;;6.18;4.68;;;;;;;;;;10276977;28;20037;-63
2021/06/09 03:00:33;;;;;;;5.43;4.00;;;;;;;;;;10304460;28;20132;-62
2021/06/09 03:05:38;;;;;;;5.32;3.95;;;;;;;;;;10294275;28;20041;-65
2021/06/09 03:10:53;;;;;;;8.57;3.85;;;;;;;;;;10286262;28;20056;-64
2021/06/09 03:15:51;;;;;;;6.65;5.05;;;;;;;;;;10301684;28;20109;-63
2021/06/09 03:21:06;;;;;;;8.73;5.40;;;;;;;;;;10303758;28;20140;-63
2021/06/09 03:26:10;;;;;;;9.88;6.18;;;;;;;;;;10277619;28;20034;-61
2021/06/09 03:31:09;;;;;;;7.78;6.38;;;;;;;;;;10275729;28;20045;-64
2021/06/09 03:36:36;;;;;;;0.60;0.60;;;;;;;;;;10274084;28;20025;-63
2021/06/09 03:41:54;;;;;;;2.05;0.50;;;;;;;;;;10263432;28;20665;-64
2021/06/09 03:46:52;;;;;;;1.98;1.55;;;;;;;;;;10266432;28;20547;-63
2021/06/09 03:51:50;;;;;;;3.30;1.40;;;;;;;;;;10280639;28;20029;-63
2021/06/09 03:56:48;;;;;;;2.50;1.92;;;;;;;;;;10281362;28;20554;-63
2021/06/09 04:01:47;;;;;;;2.63;1.52;;;;;;;;;;10275813;28;20140;-64
2021/06/09 04:06:45;;;;;;;1.48;0.90;;;;;;;;;;10278701;28;20041;-63
2021/06/09 04:11:42;;;;;;;2.40;1.77;;;;;;;;;;10289091;28;20044;-63
2021/06/09 04:16:40;;;;;;;0.67;0.50;;;;;;;;;;10299404;28;20037;-64
2021/06/09 04:21:37;;;;;;;2.80;0.73;;;;;;;;;;10268520;28;20461;-63
2021/06/09 04:26:37;;;;;;;0.70;0.70;;;;;;;;;;10265621;28;20044;-64
2021/06/09 04:31:34;;;;;;;0.70;0.70;;;;;;;;;;10262670;28;20140;-64
2021/06/09 04:36:32;;;;;;;0.70;0.70;;;;;;;;;;10292629;28;20124;-63
2021/06/09 04:41:29;;;;;;;2.50;2.27;;;;;;;;;;10286713;28;20036;-64
2021/06/09 04:46:27;;;;;;;7.53;5.43;;;;;;;;;;10278958;28;20422;-64
2021/06/09 04:51:25;;;;;;;7.47;5.40;;;;;;;;;;10263389;28;20334;-64
2021/06/09 04:56:22;;;;;;;3.42;1.83;;;;;;;;;;10271299;28;20099;-63
2021/06/09 05:01:20;;;;;;;3.40;2.27;;;;;;;;;;10277091;28;20111;-63
2021/06/09 05:06:17;;;;;;;1.83;1.20;;;;;;;;;;10291658;28;20033;-61
2021/06/09 05:11:18;;;;;;;1.70;1.23;;;;;;;;;;10288203;28;20048;-62
2021/06/09 05:16:18;;;;;;;2.33;1.63;;;;;;;;;;10284788;28;20033;-63
2021/06/09 05:21:19;;;;;;;3.67;2.47;;;;;;;;;;10250918;28;20136;-63
2021/06/09 05:26:17;;;;;;;6.18;4.82;;;;;;;;;;10259302;28;20068;-63
2021/06/09 05:31:15;;;;;;;7.25;4.85;;;;;;;;;;10288636;28;20037;-63
2021/06/09 05:36:13;;;;;;;4.17;2.23;;;;;;;;;;10274527;28;20243;-63
2021/06/09 05:41:11;;;;;;;4.75;1.83;;;;;;;;;;10274714;28;20036;-64
2021/06/09 05:46:09;;;;;;;3.92;1.88;;;;;;;;;;10280340;28;20029;-64
2021/06/09 05:51:08;;;;;;;2.13;1.92;;;;;;;;;;10272631;28;20025;-63
2021/06/09 05:56:05;;;;;;;4.55;2.60;;;;;;;;;;10246679;28;20060;-63
2021/06/09 06:01:05;;;;;;;3.83;2.90;;;;;;;;;;10268887;28;20421;-63
2021/06/09 06:06:06;;;;;;;1.70;1.38;;;;;;;;;;10266322;28;20403;-63
2021/06/09 06:11:06;;;;;;;2.25;1.35;;;;;;;;;;10243786;28;20100;-62
2021/06/09 06:16:04;;;;;;;1.23;0.90;;;;;;;;;;10263953;28;20045;-63
2021/06/09 06:21:02;;;;;;;2.65;0.93;;;;;;;;;;10271807;28;20030;-62
2021/06/09 06:26:00;;;;;;;0.30;0.30;;;;;;;;;;10281044;28;20553;-62
2021/06/09 06:30:57;;;;;;;0.77;0.47;;;;;;;;;;10275695;28;20037;-62
2021/06/09 06:35:58;;;;;;;5.50;2.83;;;;;;;;;;10280879;28;20034;-62
2021/06/09 06:40:56;;;;;;;6.82;3.92;;;;;;;;;;10254098;28;20902;-62
2021/06/09 06:45:54;;;;;;;5.72;3.60;;;;;;;;;;10285772;28;20503;-62
2021/06/09 06:50:51;;;;;;;6.25;4.07;;;;;;;;;;10286293;28;20034;-62
2021/06/09 06:55:49;;;;;;;5.93;4.00;;;;;;;;;;10262824;28;20088;-62
2021/06/09 07:00:46;;;;;;;;;;;;;;;;;;10275219;28;20041;-64
2021/06/09 07:05:44;;;;;;;5.38;3.65;;;;;;;;;;10276483;28;19913;-62
2021/06/09 07:10:41;;;;;;;;;;;;;;;;;;10285255;28;20041;-63
2021/06/09 07:15:39;;;;;;;9.30;3.85;;;;;;;;;;10268426;28;19917;-63
2021/06/09 07:20:37;;;;;;;6.13;3.72;;;;;;;;;;10264688;28;20034;-62
2021/06/09 07:25:34;;;;;;;7.10;3.60;;;;;;;;;;10276069;28;20461;-62
2021/06/09 07:30:34;;;;;;;5.68;3.58;;;;;;;;;;10265904;28;20361;-62
2021/06/09 07:35:32;;;;;;;4.88;2.70;;;;;;;;;;10270615;28;20042;-62
2021/06/09 07:40:32;;;;;;;3.90;2.00;;;;;;;;;;10285337;28;20034;-62
2021/06/09 07:45:30;;;;;;;2.65;1.58;;;;;;;;;;10272750;28;20040;-62
2021/06/09 07:50:33;;;;;;;5.03;2.42;;;;;;;;;;10284381;28;22215;-63
2021/06/09 07:55:34;;;;;;;3.95;2.50;;;;;;;;;;10254318;28;20136;-64
2021/06/09 08:00:33;;;;;;;5.65;2.25;;;;;;;;;;10267650;28;20037;-63
2021/06/09 08:05:30;;;;;;;3.22;2.00;;;;;;;;;;10276918;28;20482;-63
2021/06/09 08:10:28;;;;;;;0.73;0.57;;;;;;;;;;10283819;28;20419;-63
2021/06/09 08:15:25;;;;;;;1.63;1.43;;;;;;;;;;10268839;28;20538;-63
2021/06/09 08:20:24;;;;;;;2.67;1.63;;;;;;;;;;10286769;28;20292;-63
2021/06/09 08:25:24;;;;;;;1.48;1.38;;;;;;;;;;10275641;28;20048;-64
2021/06/09 08:30:22;;;;;;;2.75;2.10;;;;;;;;;;10278461;28;20395;-63
2021/06/09 08:35:19;;;;;;;2.78;2.15;;;;;;;;;;10295950;28;20102;-63
2021/06/09 08:40:16;;;;;;;5.60;2.00;;;;;;;;;;10280719;28;20063;-63
2021/06/09 08:45:14;;;;;;;2.13;1.93;;;;;;;;;;10298646;28;20327;-63
2021/06/09 08:50:12;;;;;;;3.05;1.60;;;;;;;;;;10281976;28;20041;-63
2021/06/09 08:55:10;;;;;;;5.40;3.72;;;;;;;;;;10277213;28;20052;-63
2021/06/09 09:00:09;;;;;;;4.40;3.33;;;;;;;;;;10287378;28;20045;-63
2021/06/09 09:05:07;;;;;;;5.25;2.83;;;;;;;;;;10274605;28;20038;-63
2021/06/09 09:10:06;;;;;;;3.80;2.70;;;;;;;;;;10290930;28;20037;-63
2021/06/09 09:15:05;;;;;;;5.55;2.40;;;;;;;;;;10281782;28;20516;-63
2021/06/09 09:20:04;;;;;;;3.20;2.15;;;;;;;;;;10272605;28;20033;-63
2021/06/09 09:25:12;;;;;;;2.00;1.75;;;;;;;;;;10286546;28;20030;-62
2021/06/09 09:30:13;;;;;;;2.92;1.52;;;;;;;;;;10290280;28;20041;-62
2021/06/09 09:35:14;;;;;;;1.65;1.55;;;;;;;;;;10286647;28;20046;-63
2021/06/09 09:40:17;;;;;;;1.98;1.50;;;;;;;;;;10268016;28;20442;-63
2021/06/09 09:45:14;;;;;;;1.58;1.40;;;;;;;;;;10268875;28;20069;-66
2021/06/09 09:50:30;;;;;;;1.13;1.00;;;;;;;;;;10290423;28;20062;-63
2021/06/09 09:55:28;;;;;;;3.45;1.30;;;;;;;;;;10293480;28;20427;-63
2021/06/09 10:00:32;;;;;;;2.10;1.90;;;;;;;;;;10289635;28;20168;-63
2021/06/09 10:05:29;;;;;;;2.22;1.60;;;;;;;;;;10279651;28;20041;-62
2021/06/09 10:10:27;;;;;;;2.37;1.10;;;;;;;;;;10276123;28;20489;-63
2021/06/09 10:15:40;;;;;;;2.20;2.00;;;;;;;;;;10279721;28;20050;-63
2021/06/09 10:20:39;;;;;;;3.63;1.95;;;;;;;;;;10273688;28;20034;-63
2021/06/09 10:25:36;;;;;;;2.28;1.23;;;;;;;;;;10282441;28;20068;-63
2021/06/09 10:30:34;;;;;;;1.90;1.70;;;;;;;;;;10267026;28;20037;-62
2021/06/09 10:35:34;;;;;;;0.85;0.85;;;;;;;;;;10286653;28;20088;-63
2021/06/09 10:40:34;;;;;;;2.10;1.10;;;;;;;;;;10280969;28;20060;-63
2021/06/09 10:45:32;;;;;;;1.42;1.23;;;;;;;;;;10262705;28;20041;-63
2021/06/09 10:50:29;;;;;;;1.98;1.25;;;;;;;;;;10273222;28;20037;-63
2021/06/09 10:55:27;;;;;;;1.23;0.93;;;;;;;;;;10280042;28;20499;-63
2021/06/09 11:00:24;;;;;;;1.67;1.03;;;;;;;;;;10286784;28;20180;-63
2021/06/09 11:05:22;;;;;;;0.50;0.50;;;;;;;;;;10283384;28;20670;-64
2021/06/09 11:10:34;;;;;;;0.70;0.70;;;;;;;;;;10279525;28;20717;-64
2021/06/09 11:15:33;;;;;;;1.15;0.70;;;;;;;;;;10255314;28;20084;-63
2021/06/09 11:20:37;;;;;;;3.08;1.00;;;;;;;;;;10255074;28;20045;-63
2021/06/09 11:25:40;;;;;;;1.67;1.10;;;;;;;;;;10283168;28;20048;-63
2021/06/09 11:30:39;;;;;;;2.08;1.00;;;;;;;;;;10271997;28;20030;-64
2021/06/09 11:35:50;;;;;;;1.17;1.00;;;;;;;;;;10258997;28;21003;-64
2021/06/09 11:40:48;;;;;;;1.30;1.05;;;;;;;;;;10245651;28;20036;-64
2021/06/09 11:45:54;;;;;;;0.73;0.68;;;;;;;;;;10267203;28;20051;-63
2021/06/09 11:50:55;;;;;;;2.17;1.00;;;;;;;;;;10281593;28;20040;-63
2021/06/09 11:56:12;;;;;;;1.13;0.82;;;;;;;;;;10281548;28;20525;-63
2021/06/09 12:01:10;;;;;;;1.65;0.80;;;;;;;;;;10257792;28;20033;-64
2021/06/09 12:06:12;;;;;;;0.80;0.80;;;;;;;;;;10276283;28;20053;-64
2021/06/09 12:11:10;;;;;;;1.33;0.47;;;;;;;;;;10284028;28;20121;-63
2021/06/09 12:16:16;;;;;;;2.83;0.50;;;;;;;;;;10279849;28;20505;-63
2021/06/09 12:21:15;;;;;;;0.68;0.60;;;;;;;;;;10269123;28;20037;-64
2021/06/09 12:26:12;;;;;;;1.08;0.75;;;;;;;;;;10291284;28;20035;-63
2021/06/09 12:31:11;;;;;;;1.60;0.40;;;;;;;;;;10289816;28;20518;-63
2021/06/09 12:36:09;;;;;;;1.15;0.45;;;;;;;;;;10282434;28;20033;-63
2021/06/09 12:41:11;;;;;;;1.63;0.60;;;;;;;;;;10281866;28;20029;-63
2021/06/09 12:46:13;;;;;;;0.68;0.50;;;;;;;;;;10249127;28;20048;-65
2021/06/09 12:51:10;;;;;;;0.80;0.57;;;;;;;;;;10265643;28;20053;-63
2021/06/09 12:56:08;;;;;;;0.23;0.23;;;;;;;;;;10291481;28;20120;-63
2021/06/09 13:01:06;;;;;;;0.50;0.43;;;;;;;;;;10258581;28;20113;-63
2021/06/09 13:06:04;;;;;;;3.05;0.40;;;;;;;;;;10280237;28;20578;-63
2021/06/09 13:11:01;;;;;;;0.40;0.40;;;;;;;;;;10289054;28;20051;-63
2021/06/09 13:16:00;;;;;;;1.37;0.53;;;;;;;;;;10257462;28;20895;-64
2021/06/09 13:21:07;;;;;;;0.50;0.40;;;;;;;;;;10294206;28;20272;-63
2021/06/09 13:26:06;;;;;;;1.73;0.73;;;;;;;;;;10278051;28;20049;-64
2021/06/09 13:31:04;;;;;;;1.83;1.17;;;;;;;;;;10273195;28;20029;-63
2021/06/09 13:36:01;;;;;;;1.13;0.90;;;;;;;;;;10283764;28;20434;-64
2021/06/09 13:40:59;;;;;;;0.88;0.75;;;;;;;;;;10279596;28;20831;-63
2021/06/09 13:45:57;;;;;;;0.98;0.82;;;;;;;;;;10269398;28;20519;-64
2021/06/09 13:50:56;;;;;;;0.77;0.65;;;;;;;;;;10272471;28;20034;-64
2021/06/09 13:55:54;;;;;;;2.22;1.40;;;;;;;;;;10280625;28;20049;-64
2021/06/09 14:00:52;;;;;;;1.83;1.65;;;;;;;;;;10280237;28;20029;-64
2021/06/09 14:05:50;;;;;;;2.38;2.15;;;;;;;;;;10273927;28;20100;-64
2021/06/09 14:10:49;;;;;;;0.70;0.70;;;;;;;;;;10276505;28;20034;-63
2021/06/09 14:15:55;;;;;;;1.00;0.90;;;;;;;;;;10283348;28;20042;-64
2021/06/09 14:20:55;;;;;;;1.67;1.20;;;;;;;;;;10278180;28;20076;-64
2021/06/09 14:25:59;;;;;;;2.55;1.58;;;;;;;;;;10278965;28;20052;-64
2021/06/09 14:30:58;;;;;;;2.83;1.38;;;;;;;;;;10290615;28;20529;-64
2021/06/09 14:41:12;;;;;;;1.58;1.48;;;;;;;;;;10277915;28;20037;-63
2021/06/09 14:46:14;;;;;;;2.13;1.58;;;;;;;;;;10270379;28;20411;-64
2021/06/09 14:51:16;;;;;;;2.03;1.55;;;;;;;;;;10284020;28;20740;-64
2021/06/09 14:56:14;;;;;;;1.95;1.45;;;;;;;;;;10263673;28;20072;-63
2021/06/09 15:01:12;;;;;;;3.25;2.00;;;;;;;;;;10252518;28;20057;-63
2021/06/09 15:06:10;;;;;;;1.48;0.98;;;;;;;;;;10267986;28;20432;-63
2021/06/09 15:11:08;;;;;;;2.88;2.20;;;;;;;;;;10267065;28;20185;-64
2021/06/09 15:16:06;;;;;;;2.63;2.42;;;;;;;;;;10257340;28;20042;-63
2021/06/09 15:21:05;;;;;;;3.08;2.08;;;;;;;;;;10279792;28;20041;-63
2021/06/09 15:26:04;;;;;;;1.75;1.20;;;;;;;;;;10295461;28;20041;-63
2021/06/09 15:31:02;;;;;;;2.40;2.00;;;;;;;;;;10261665;28;20034;-63
2021/06/09 15:35:59;;;;;;;4.60;2.25;;;;;;;;;;10270071;28;20056;-64
2021/06/09 15:40:57;;;;;;;4.50;2.53;;;;;;;;;;10281000;28;20030;-63
2021/06/09 15:45:54;;;;;;;2.10;1.67;;;;;;;;;;10278833;28;20033;-63
2021/06/09 15:50:52;;;;;;;3.75;2.33;;;;;;;;;;10270111;28;20148;-63
2021/06/09 15:55:49;;;;;;;2.63;2.20;;;;;;;;;;10286862;28;20037;-63
2021/06/09 16:00:47;;;;;;;4.30;2.30;;;;;;;;;;10293681;28;20037;-63
2021/06/09 16:05:44;;;;;;;2.80;1.95;;;;;;;;;;10282292;28;20091;-63
2021/06/09 16:10:41;;;;;;;4.30;3.13;;;;;;;;;;10279964;28;20034;-63
2021/06/09 16:15:39;;;;;;;3.53;2.88;;;;;;;;;;10281737;28;20066;-64
2021/06/09 16:20:37;;;;;;;0.60;0.60;;;;;;;;;;10281586;28;20041;-64
2021/06/09 16:25:34;;;;;;;0.50;0.45;;;;;;;;;;10285949;28;20045;-63
2021/06/09 16:30:33;;;;;;;3.38;1.77;;;;;;;;;;10288006;28;20034;-63
2021/06/09 16:35:31;;;;;;;1.83;1.38;;;;;;;;;;10285857;28;20052;-63
2021/06/09 16:40:29;;;;;;;1.02;0.70;;;;;;;;;;10277292;28;20038;-63
2021/06/09 16:45:28;;;;;;;1.88;1.10;;;;;;;;;;10276294;28;20034;-64
2021/06/09 16:50:25;;;;;;;0.85;0.75;;;;;;;;;;10285059;28;20132;-63
2021/06/09 17:00:21;;;;;;;2.72;1.75;;;;;;;;;;10276945;28;20041;-64
2021/06/09 17:05:19;;;;;;;1.30;0.70;;;;;;;;;;10280781;28;20132;-63
2021/06/09 17:10:16;;;;;;;0.57;0.52;;;;;;;;;;10285376;28;20504;-64
2021/06/09 17:15:14;;;;;;;1.10;0.82;;;;;;;;;;10270886;28;20061;-64
2021/06/09 17:20:11;;;;;;;1.25;1.10;;;;;;;;;;10290760;28;20037;-63
2021/06/09 17:25:09;;;;;;;1.70;1.60;;;;;;;;;;10273847;28;20038;-64
2021/06/09 17:30:07;;;;;;;1.63;1.15;;;;;;;;;;10272103;28;20495;-63
2021/06/09 17:35:05;;;;;;;2.72;2.42;;;;;;;;;;10249342;28;20100;-64
2021/06/09 17:40:03;;;;;;;2.90;2.40;;;;;;;;;;10260027;28;20038;-63
2021/06/09 17:45:00;;;;;;;4.45;2.67;;;;;;;;;;10271291;28;20129;-63
2021/06/09 17:49:58;;;;;;;2.93;2.27;;;;;;;;;;10283057;28;20043;-63
2021/06/09 17:54:55;;;;;;;3.73;2.67;;;;;;;;;;10264981;28;20096;-63
2021/06/09 17:59:53;;;;;;;4.10;2.80;;;;;;;;;;10265201;28;20067;-63
2021/06/09 18:04:51;;;;;;;4.35;3.03;;;;;;;;;;10264908;28;20109;-63
2021/06/09 18:09:48;;;;;;;3.92;2.65;;;;;;;;;;10280636;28;20124;-63
2021/06/09 18:14:46;;;;;;;3.17;2.47;;;;;;;;;;10284266;28;20038;-64
2021/06/09 18:19:43;;;;;;;4.53;2.55;;;;;;;;;;10290439;28;20417;-63
2021/06/09 18:24:41;;;;;;;4.87;2.50;;;;;;;;;;10274368;28;20060;-63
2021/06/09 18:29:38;;;;;;;3.03;2.60;;;;;;;;;;10288612;28;20458;-63
2021/06/09 18:34:36;;;;;;;3.37;2.20;;;;;;;;;;10273605;28;20418;-64
2021/06/09 18:39:33;;;;;;;3.60;2.17;;;;;;;;;;10265810;28;20272;-63
2021/06/09 18:44:31;;;;;;;3.50;2.40;;;;;;;;;;10271228;28;20038;-63
2021/06/09 18:49:28;;;;;;;4.07;2.58;;;;;;;;;;10257660;28;20658;-64
2021/06/09 18:54:26;;;;;;;3.30;1.83;;;;;;;;;;10281107;28;20171;-64
2021/06/09 18:59:23;;;;;;;2.15;1.65;;;;;;;;;;10273840;28;20041;-64
2021/06/09 19:04:21;;;;;;;1.92;1.73;;;;;;;;;;10265125;28;20033;-63
2021/06/09 19:09:18;;;;;;;2.05;1.85;;;;;;;;;;10252827;28;20018;-63
2021/06/09 19:14:16;;;;;;;1.57;1.47;;;;;;;;;;10271563;28;20036;-64
2021/06/09 19:19:13;;;;;;;2.20;1.90;;;;;;;;;;10270102;28;20829;-63
2021/06/09 19:24:11;;;;;;;3.70;2.55;;;;;;;;;;10280646;28;20026;-63
2021/06/09 19:29:09;;;;;;;2.03;1.27;;;;;;;;;;10283229;28;20025;-63
2021/06/09 19:34:08;;;;;;;2.45;0.68;;;;;;;;;;10275550;28;20116;-63
2021/06/09 19:39:06;;;;;;;2.83;1.75;;;;;;;;;;10280116;28;20029;-64
2021/06/09 19:44:03;;;;;;;3.25;1.45;;;;;;;;;;10273660;28;20104;-64
2021/06/09 19:49:01;;;;;;;3.25;1.60;;;;;;;;;;10289106;28;20117;-64
2021/06/09 19:53:59;;;;;;;1.80;1.60;;;;;;;;;;10286675;28;20529;-64
2021/06/09 19:58:56;;;;;;;0.70;0.47;;;;;;;;;;10266307;28;20030;-63
2021/06/09 20:03:53;;;;;;;0.30;0.20;;;;;;;;;;10277601;28;20022;-64
2021/06/09 20:08:51;;;;;;;2.20;1.67;;;;;;;;;;10286118;28;20038;-63
2021/06/09 20:13:48;;;;;;;2.63;2.03;;;;;;;;;;10284658;28;20037;-63
2021/06/09 20:18:46;;;;;;;3.10;2.70;;;;;;;;;;10287995;28;20051;-64
2021/06/09 20:23:44;;;;;;;3.03;2.72;;;;;;;;;;10256525;28;20034;-64
2021/06/09 20:28:41;;;;;;;3.97;2.92;;;;;;;;;;10271265;28;20507;-64
2021/06/09 20:33:38;;;;;;;4.23;2.93;;;;;;;;;;10287396;28;20408;-64
2021/06/09 20:38:36;;;;;;;4.17;3.17;;;;;;;;;;10261731;28;20429;-63
2021/06/09 20:43:34;;;;;;;3.20;2.67;;;;;;;;;;10283754;28;20311;-64
2021/06/09 20:48:31;;;;;;;3.70;2.97;;;;;;;;;;10290567;28;20381;-64
2021/06/09 20:53:29;;;;;;;4.30;3.13;;;;;;;;;;10263061;28;20049;-63
2021/06/09 20:58:27;;;;;;;5.18;4.05;;;;;;;;;;10284221;28;20513;-65
2021/06/09 21:03:24;;;;;;;7.85;4.90;;;;;;;;;;10283176;28;20049;-63
2021/06/09 21:08:22;;;;;;;4.82;4.20;;;;;;;;;;10286341;28;20057;-63
2021/06/09 21:13:19;;;;;;;5.65;3.90;;;;;;;;;;10288484;28;20033;-63
2021/06/09 21:18:17;;;;;;;5.97;5.38;;;;;;;;;;10291129;28;20044;-63
2021/06/09 21:23:14;;;;;;;6.00;3.97;;;;;;;;;;10276665;28;20034;-63
2021/06/09 21:28:11;;;;;;;;;;;;;;;;;;10280974;28;20284;-63
2021/06/09 21:33:09;;;;;;;5.63;3.78;;;;;;;;;;10284893;28;19925;-64
2021/06/09 21:38:06;;;;;;;;;;;;;;;;;;10277395;28;20034;-64
2021/06/09 21:43:03;;;;;;;5.45;3.95;;;;;;;;;;10273484;28;19960;-64
2021/06/09 21:48:01;;;;;;;5.23;4.33;;;;;;;;;;10273710;28;20091;-64
2021/06/09 21:52:58;;;;;;;;;;;;;;;;;;10278027;28;20299;-63
2021/06/09 21:57:56;;;;;;;6.80;5.05;;;;;;;;;;10269011;28;20393;-63
2021/06/09 22:02:53;;;;;;;;;;;;;;;;;;10282069;28;20091;-63
2021/06/09 22:07:50;;;;;;;7.10;5.53;;;;;;;;;;10284187;28;19920;-64
2021/06/09 22:12:48;;;;;;;;;;;;;;;;;;10268765;28;20658;-63
2021/06/09 22:17:45;;;;;;;8.00;6.50;;;;;;;;;;10283768;28;19928;-63
2021/06/09 22:22:44;;;;;;;5.93;5.07;;;;;;;;;;10293021;28;20088;-63
2021/06/09 22:27:41;;;;;;;6.15;5.28;;;;;;;;;;10291650;28;20080;-63
2021/06/09 22:32:39;;;;;;;7.45;4.97;;;;;;;;;;10294854;28;20071;-62
2021/06/09 22:37:36;;;;;;;6.17;4.97;;;;;;;;;;10297221;28;20037;-62
2021/06/09 22:42:34;;;;;;;7.03;4.78;;;;;;;;;;10271025;28;20041;-62
2021/06/09 22:47:31;;;;;;;6.50;4.87;;;;;;;;;;10287339;28;20033;-62
2021/06/09 22:52:28;;;;;;;6.60;4.93;;;;;;;;;;10296509;28;20372;-62
2021/06/09 22:57:26;;;;;;;7.53;4.70;;;;;;;;;;10283482;28;20453;-65
2021/06/09 23:02:23;;;;;;;7.37;4.67;;;;;;;;;;10286744;28;20033;-65
2021/06/09 23:07:21;;;;;;;9.57;4.63;;;;;;;;;;10285424;28;20469;-63
2021/06/09 23:12:18;;;;;;;5.73;4.40;;;;;;;;;;10291009;28;20329;-63
2021/06/09 23:17:16;;;;;;;5.78;5.15;;;;;;;;;;10271018;28;20033;-63
2021/06/09 23:22:13;;;;;;;7.17;5.90;;;;;;;;;;10291742;28;20040;-62
2021/06/09 23:27:11;;;;;;;7.33;6.40;;;;;;;;;;10300332;28;20045;-63
2021/06/09 23:32:08;;;;;;;10.20;8.27;;;;;;;;;;10299404;28;20512;-62
2021/06/09 23:37:06;;;;;;;9.17;8.13;;;;;;;;;;10288017;28;20056;-63
2021/06/09 23:42:03;;;;;;;9.10;7.90;;;;;;;;;;10286988;28;20033;-63
2021/06/09 23:47:03;;;;;;;10.30;8.15;;;;;;;;;;10293384;28;20190;-63
2021/06/09 23:57:16;;;;;;;12.23;10.68;;;;;;;;;;10286573;28;20058;-62
